KLOZ/LOZ METAR and TAF weather

Enter ICAO airport designator
Station Type Date Time Source
KLOZ METAR 2019/06/26 05:53 UTC NOAA

KLOZ 260553Z AUTO 00000KT 10SM CLR 18/18 A3014 RMK AO2 SLP196 T01780178 10261 20178 51011


Station Type Date Time Source
KLOZ Decoded METAR 2019/06/26 05:53 UTC NOAA

LONDON-CORBIN AIRPORT, KY, United States (KLOZ) 37-05N 084-04W 362M
Jun 26, 2019 - 01:53 AM EDT / 2019.06.26 0553 UTC
Wind: Calm:0
Visibility: 10 mile(s):0
Sky conditions: clear
Temperature: 64.0 F (17.8 C)
Dew Point: 64.0 F (17.8 C)
Relative Humidity: 100%
Pressure (altimeter): 30.14 in. Hg (1020 hPa)
Pressure tendency: 0.03 inches (1.1 hPa) higher than three hours ago
ob: KLOZ 260553Z AUTO 00000KT 10SM CLR 18/18 A3014 RMK AO2 SLP196 T01780178 10261 20178 51011
cycle: 6

Station Type Date Time Source
KLOZ TAF 2019/06/26 06:42 UTC NOAA

TAF KLOZ 260539Z 2606/2706 VRB03KT P6SM FEW005 FEW250
TEMPO 2608/2612 1SM BR BKN005
FM261300 VRB05KT P6SM FEW250

Example: see airport list